createdAt,value
2022-12-20T00:02:04.367Z,100946.53
2022-12-20T00:04:32.043Z,100956.59
2022-12-20T00:06:59.538Z,100945.72
2022-12-20T00:09:27.161Z,100942.00
2022-12-20T00:11:54.882Z,100938.31
2022-12-20T00:14:23.770Z,100949.81
2022-12-20T00:16:51.307Z,100946.13
2022-12-20T00:19:18.899Z,100943.66
2022-12-20T00:21:46.456Z,100935.28
2022-12-20T00:24:14.330Z,100933.63
2022-12-20T00:26:41.882Z,100930.13
2022-12-20T00:29:09.450Z,100927.06
2022-12-20T00:31:38.733Z,100935.47
2022-12-20T00:34:06.371Z,100939.75
2022-12-20T00:36:34.776Z,100922.72
2022-12-20T00:39:02.800Z,100930.53
2022-12-20T00:41:32.095Z,100925.59
2022-12-20T00:43:59.705Z,100927.47
2022-12-20T00:46:27.832Z,100924.38
2022-12-20T00:48:57.613Z,100921.09
2022-12-20T00:51:26.860Z,100926.84
2022-12-20T00:53:54.766Z,100925.59
2022-12-20T00:56:22.874Z,100929.91
2022-12-20T00:58:50.477Z,100940.19
2022-12-20T01:01:20.908Z,100934.84
2022-12-20T01:03:48.487Z,100933.81
2022-12-20T01:06:17.966Z,100935.66
2022-12-20T01:08:45.575Z,100927.03
2022-12-20T01:11:15.202Z,100929.72
2022-12-20T01:13:44.591Z,100940.78
2022-12-20T01:16:13.909Z,100930.94
2022-12-20T01:18:41.418Z,100935.66
2022-12-20T01:21:11.287Z,100940.78
2022-12-20T01:23:41.150Z,100930.69
2022-12-20T01:26:10.997Z,100926.41
2022-12-20T01:28:40.250Z,100933.81
2022-12-20T01:31:09.130Z,100932.38
2022-12-20T01:33:37.731Z,100937.72
2022-12-20T01:36:09.135Z,100940.59
2022-12-20T01:38:37.607Z,100937.50
2022-12-20T01:41:06.834Z,100938.31
2022-12-20T01:43:47.989Z,100930.72
2022-12-20T01:46:16.023Z,100929.69
2022-12-20T01:48:47.032Z,100927.84
2022-12-20T01:51:15.566Z,100930.31
2022-12-20T01:53:44.008Z,100922.31
2022-12-20T01:56:14.135Z,100928.03
2022-12-20T01:58:43.682Z,100906.94
2022-12-20T02:01:11.900Z,100916.97
2022-12-20T02:03:40.666Z,100920.47
2022-12-20T02:06:17.519Z,100913.50
2022-12-20T02:08:46.969Z,100908.97
2022-12-20T02:11:25.542Z,100913.25
2022-12-20T02:14:00.555Z,100908.38
2022-12-20T02:16:31.584Z,100910.84
2022-12-20T02:19:01.257Z,100909.38
2022-12-20T02:21:34.051Z,100915.72
2022-12-20T02:24:35.436Z,100910.19
2022-12-20T02:27:31.268Z,100911.84
2022-12-20T02:30:07.908Z,100902.00
2022-12-20T02:32:39.253Z,100905.06
2022-12-20T02:35:08.584Z,100889.91
2022-12-20T02:37:36.163Z,100891.13
2022-12-20T02:40:05.806Z,100888.47
2022-12-20T02:42:34.572Z,100896.25
2022-12-20T02:45:15.348Z,100891.72
2022-12-20T02:47:48.139Z,100893.78
2022-12-20T02:50:18.614Z,100893.38
2022-12-20T02:52:46.139Z,100886.81
2022-12-20T02:55:13.726Z,100889.50
2022-12-20T02:57:46.302Z,100890.50
2022-12-20T03:00:16.671Z,100888.25
2022-12-20T03:03:03.876Z,100878.00
2022-12-20T03:05:31.659Z,100892.97
2022-12-20T03:07:59.554Z,100894.38
2022-12-20T03:10:27.253Z,100899.72
2022-12-20T03:12:54.724Z,100892.75
2022-12-20T03:15:23.793Z,100899.72
2022-12-20T03:17:51.328Z,100893.16
2022-12-20T03:20:18.978Z,100893.97
2022-12-20T03:22:46.561Z,100891.31
2022-12-20T03:25:14.062Z,100889.88
2022-12-20T03:27:41.534Z,100892.34
2022-12-20T03:30:09.793Z,100883.31
2022-12-20T03:32:38.597Z,100885.34
2022-12-20T03:35:07.211Z,100882.28
2022-12-20T03:37:34.657Z,100875.91
2022-12-20T03:40:02.139Z,100877.56
2022-12-20T03:42:30.368Z,100874.06
2022-12-20T03:44:57.909Z,100868.53
2022-12-20T03:47:25.546Z,100877.34
2022-12-20T03:49:54.350Z,100865.25
2022-12-20T03:52:21.823Z,100864.00
2022-12-20T03:54:49.325Z,100872.25
2022-12-20T03:57:17.325Z,100867.91
2022-12-20T03:59:44.826Z,100884.16
2022-12-20T04:02:12.654Z,100879.00
2022-12-20T04:04:40.258Z,100870.16
2022-12-20T04:07:09.132Z,100876.94
2022-12-20T04:09:37.706Z,100877.34
2022-12-20T04:12:05.472Z,100868.94
2022-12-20T04:14:33.074Z,100878.78
2022-12-20T04:17:00.628Z,100871.81
2022-12-20T04:19:28.145Z,100880.00
2022-12-20T04:22:04.618Z,100859.50
2022-12-20T04:24:35.886Z,100858.03
2022-12-20T04:27:03.928Z,100847.56
2022-12-20T04:29:32.427Z,100858.03
2022-12-20T04:31:59.988Z,100858.25
2022-12-20T04:34:28.735Z,100853.50
2022-12-20T04:36:57.348Z,100855.13
2022-12-20T04:39:25.800Z,100853.94
2022-12-20T04:41:54.947Z,100860.91
2022-12-20T04:44:22.487Z,100845.94
2022-12-20T04:46:50.039Z,100849.19
2022-12-20T04:49:17.553Z,100849.19
2022-12-20T04:51:45.018Z,100837.88
2022-12-20T04:54:11.490Z,100850.63
2022-12-20T04:56:39.196Z,100841.38
2022-12-20T04:59:08.966Z,100844.44
2022-12-20T05:01:38.306Z,100848.78
2022-12-20T05:04:05.941Z,100845.47
2022-12-20T05:06:34.408Z,100844.44
2022-12-20T05:09:03.030Z,100845.47
2022-12-20T05:11:30.543Z,100839.75
2022-12-20T05:13:58.032Z,100840.53
2022-12-20T05:16:28.096Z,100843.63
2022-12-20T05:18:56.466Z,100852.63
2022-12-20T05:21:41.821Z,100848.13
2022-12-20T05:24:27.637Z,100849.56
2022-12-20T05:26:55.272Z,100840.97
2022-12-20T05:29:23.655Z,100845.44
2022-12-20T05:31:52.718Z,100847.47
2022-12-20T05:34:20.247Z,100852.00
2022-12-20T05:36:48.149Z,100851.59
2022-12-20T05:39:15.699Z,100848.50
2022-12-20T05:41:43.287Z,100855.28
2022-12-20T05:44:11.024Z,100852.19
2022-12-20T05:46:38.584Z,100858.97
2022-12-20T05:49:07.817Z,100860.59
2022-12-20T05:51:35.379Z,100863.06
2022-12-20T05:54:03.129Z,100859.16
2022-12-20T05:56:30.645Z,100861.00
2022-12-20T05:58:59.731Z,100860.81
2022-12-20T06:01:27.272Z,100865.72
2022-12-20T06:03:54.872Z,100841.84
2022-12-20T06:06:29.427Z,100851.50
2022-12-20T06:08:57.102Z,100850.88
2022-12-20T06:11:29.862Z,100852.28
2022-12-20T06:13:58.451Z,100843.72
2022-12-20T06:16:26.142Z,100846.97
2022-12-20T06:18:53.928Z,100857.25
2022-12-20T06:21:21.444Z,100852.56
2022-12-20T06:23:50.350Z,100859.09
2022-12-20T06:26:18.934Z,100861.53
2022-12-20T06:28:46.711Z,100871.59
2022-12-20T06:31:14.259Z,100865.63
2022-12-20T06:33:41.880Z,100864.63
2022-12-20T06:36:09.630Z,100855.75
2022-12-20T06:38:37.162Z,100852.72
2022-12-20T06:41:06.467Z,100853.56
2022-12-20T06:43:34.062Z,100860.94
2022-12-20T06:46:01.613Z,100860.56
2022-12-20T06:48:29.237Z,100858.69
2022-12-20T06:50:56.824Z,100860.31
2022-12-20T06:53:24.425Z,100859.53
2022-12-20T06:55:52.298Z,100854.97
2022-12-20T06:58:21.680Z,100848.19
2022-12-20T07:00:49.309Z,100848.44
2022-12-20T07:03:17.157Z,100855.22
2022-12-20T07:05:44.733Z,100847.38
2022-12-20T07:08:12.301Z,100857.25
2022-12-20T07:10:39.775Z,100855.44
2022-12-20T07:13:07.300Z,100849.03
2022-12-20T07:15:36.181Z,100840.81
2022-12-20T07:18:04.647Z,100840.41
2022-12-20T07:20:32.951Z,100835.47
2022-12-20T07:23:00.532Z,100837.91
2022-12-20T07:25:27.988Z,100831.53
2022-12-20T07:27:55.482Z,100829.50
2022-12-20T07:30:23.172Z,100827.00
2022-12-20T07:32:52.384Z,100839.75
2022-12-20T07:35:19.846Z,100836.03
2022-12-20T07:37:47.387Z,100833.53
2022-12-20T07:40:16.287Z,100838.44
2022-12-20T07:42:48.557Z,100841.13
2022-12-20T07:45:16.829Z,100835.09
2022-12-20T07:47:44.723Z,100829.56
2022-12-20T07:50:13.663Z,100817.91
2022-12-20T07:52:42.609Z,100830.44
2022-12-20T07:55:10.819Z,100826.09
2022-12-20T07:57:42.922Z,100815.50
2022-12-20T08:00:12.288Z,100825.09
2022-12-20T08:02:43.373Z,100816.03
2022-12-20T08:05:11.195Z,100817.63
2022-12-20T08:07:41.391Z,100817.25
2022-12-20T08:10:11.058Z,100824.41
2022-12-20T08:12:39.218Z,100820.31
2022-12-20T08:15:07.914Z,100820.31
2022-12-20T08:17:35.510Z,100821.28
2022-12-20T08:20:03.434Z,100814.97
2022-12-20T08:22:30.979Z,100820.94
2022-12-20T08:24:59.820Z,100807.16
2022-12-20T08:27:27.361Z,100818.00
2022-12-20T08:29:54.901Z,100817.19
2022-12-20T08:32:22.409Z,100814.75
2022-12-20T08:34:49.892Z,100804.88
2022-12-20T08:37:17.438Z,100804.22
2022-12-20T08:39:44.922Z,100801.97
2022-12-20T08:42:13.765Z,100808.53
2022-12-20T08:44:41.272Z,100793.31
2022-12-20T08:47:08.801Z,100790.22
2022-12-20T08:49:36.339Z,100792.47
2022-12-20T08:52:04.206Z,100779.16
2022-12-20T08:54:31.726Z,100781.81
2022-12-20T08:56:59.388Z,100771.88
2022-12-20T08:59:28.315Z,100777.69
2022-12-20T09:01:55.933Z,100788.09
2022-12-20T09:04:23.627Z,100783.16
2022-12-20T09:06:51.103Z,100785.31
2022-12-20T09:09:18.659Z,100778.75
2022-12-20T09:11:46.513Z,100782.84
2022-12-20T09:14:14.395Z,100774.63
2022-12-20T09:16:44.221Z,100781.81
2022-12-20T09:19:14.389Z,100764.69
2022-12-20T09:21:41.944Z,100772.03
2022-12-20T09:24:10.339Z,100771.63
2022-12-20T09:26:38.219Z,100778.41
2022-12-20T09:29:06.103Z,100770.63
2022-12-20T09:31:33.600Z,100781.47
2022-12-20T09:34:02.342Z,100778.19
2022-12-20T09:36:33.279Z,100788.75
2022-12-20T09:39:01.823Z,100777.94
2022-12-20T09:41:34.205Z,100784.25
2022-12-20T09:44:05.945Z,100772.44
2022-12-20T09:46:33.494Z,100784.84
2022-12-20T09:49:04.554Z,100770.88
2022-12-20T09:52:00.217Z,100774.38
2022-12-20T09:54:35.468Z,100763.31
2022-12-20T09:57:08.878Z,100769.25
2022-12-20T09:59:40.369Z,100749.63
2022-12-20T10:02:44.022Z,100746.50
2022-12-20T10:04:59.663Z,100753.91
2022-12-20T10:07:35.851Z,100744.25
2022-12-20T10:10:10.997Z,100732.91
2022-12-20T10:12:44.427Z,100735.38
2022-12-20T10:15:19.655Z,100734.31
2022-12-20T10:17:55.934Z,100740.72
2022-12-20T10:20:31.981Z,100735.72
2022-12-20T10:23:02.751Z,100735.13
2022-12-20T10:25:32.047Z,100720.63
2022-12-20T10:28:02.617Z,100726.38
2022-12-20T10:30:30.615Z,100721.22
2022-12-20T10:32:59.270Z,100718.56
2022-12-20T10:35:31.234Z,100724.94
2022-12-20T10:38:07.609Z,100706.78
2022-12-20T10:41:10.154Z,100704.63
2022-12-20T10:43:25.149Z,100713.13
2022-12-20T10:45:57.624Z,100711.38
2022-12-20T10:48:31.221Z,100711.16
2022-12-20T10:51:01.954Z,100708.69
2022-12-20T10:53:29.847Z,100701.63
2022-12-20T10:56:14.549Z,100698.34
2022-12-20T10:58:42.191Z,100696.50
2022-12-20T11:01:15.631Z,100688.25
2022-12-20T11:03:55.410Z,100680.22
2022-12-20T11:06:26.703Z,100677.78
2022-12-20T11:09:00.617Z,100679.41
2022-12-20T11:11:29.135Z,100668.81
2022-12-20T11:14:15.462Z,100667.41
2022-12-20T11:16:43.548Z,100669.44
2022-12-20T11:19:28.419Z,100671.41
2022-12-20T11:22:03.149Z,100667.31
2022-12-20T11:24:34.460Z,100668.16
2022-12-20T11:27:15.815Z,100665.25
2022-12-20T11:30:15.984Z,100660.03
2022-12-20T11:32:59.844Z,100657.81
2022-12-20T11:35:33.442Z,100652.56
2022-12-20T11:38:10.032Z,100646.25
2022-12-20T11:40:41.142Z,100654.69
2022-12-20T11:43:22.699Z,100640.91
2022-12-20T11:46:01.742Z,100632.44
2022-12-20T11:48:40.907Z,100635.94
2022-12-20T11:51:20.110Z,100638.38
2022-12-20T11:53:56.125Z,100635.81
2022-12-20T11:56:27.094Z,100635.38
2022-12-20T11:58:57.427Z,100633.75
2022-12-20T12:01:28.109Z,100629.44
2022-12-20T12:04:04.130Z,100628.75
2022-12-20T12:06:34.163Z,100617.56
2022-12-20T12:09:09.606Z,100619.66
2022-12-20T12:12:06.013Z,100615.00
2022-12-20T12:14:32.671Z,100620.00
2022-12-20T12:17:06.093Z,100618.72
2022-12-20T12:19:34.425Z,100614.41
2022-12-20T12:22:04.351Z,100624.81
2022-12-20T12:24:38.514Z,100616.88
2022-12-20T12:27:09.830Z,100614.53
2022-12-20T12:29:40.286Z,100616.53
2022-12-20T12:32:10.878Z,100610.81
2022-12-20T12:34:49.983Z,100601.25
2022-12-20T12:37:29.143Z,100594.06
2022-12-20T12:40:31.789Z,100596.13
2022-12-20T12:43:26.207Z,100595.81
2022-12-20T12:45:57.304Z,100606.75
2022-12-20T12:48:29.059Z,100603.50
2022-12-20T12:50:58.131Z,100597.56
2022-12-20T12:53:32.933Z,100585.53
2022-12-20T12:56:47.401Z,100566.22
2022-12-20T12:59:24.380Z,100582.41
2022-12-20T13:01:53.900Z,100570.53
2022-12-20T13:04:27.646Z,100562.72
2022-12-20T13:07:24.623Z,100560.97
2022-12-20T13:09:52.018Z,100561.75
2022-12-20T13:12:58.636Z,100560.63
2022-12-20T13:15:49.080Z,100554.44
2022-12-20T13:18:26.941Z,100554.22
2022-12-20T13:21:28.395Z,100561.75
2022-12-20T13:24:42.604Z,100560.75
2022-12-20T13:27:19.286Z,100551.88
2022-12-20T13:30:28.767Z,100556.78
2022-12-20T13:33:18.983Z,100550.47
2022-12-20T13:36:03.058Z,100557.34
2022-12-20T13:38:42.699Z,100547.91
2022-12-20T13:41:21.050Z,100554.22
2022-12-20T13:43:49.654Z,100553.72
2022-12-20T13:46:22.563Z,100552.69
2022-12-20T13:48:54.053Z,100568.19
2022-12-20T13:51:22.935Z,100569.69
2022-12-20T13:53:53.856Z,100567.50
2022-12-20T13:56:33.954Z,100559.78
2022-12-20T13:59:05.571Z,100557.22
2022-12-20T14:01:34.312Z,100565.84
2022-12-20T14:04:07.009Z,100559.69
2022-12-20T14:06:34.823Z,100553.59
2022-12-20T14:09:03.202Z,100556.88
2022-12-20T14:11:30.602Z,100571.69
2022-12-20T14:13:59.239Z,100562.59
2022-12-20T14:16:28.059Z,100568.63
2022-12-20T14:19:03.021Z,100564.66
2022-12-20T14:21:32.411Z,100565.38
2022-12-20T14:24:01.521Z,100569.69
2022-12-20T14:26:30.712Z,100559.91
2022-12-20T14:28:59.978Z,100560.47
2022-12-20T14:31:30.207Z,100559.44
2022-12-20T14:34:05.606Z,100556.63
2022-12-20T14:36:35.965Z,100550.00
2022-12-20T14:39:23.224Z,100557.09
2022-12-20T14:41:57.058Z,100554.78
2022-12-20T14:44:27.109Z,100551.16
2022-12-20T14:46:56.099Z,100547.31
2022-12-20T14:49:25.673Z,100549.63
2022-12-20T14:52:07.413Z,100544.38
2022-12-20T14:57:26.161Z,100545.34
2022-12-20T15:00:07.383Z,100530.09
2022-12-20T15:02:38.969Z,100533.66
2022-12-20T15:05:38.566Z,100529.72
2022-12-20T15:08:18.407Z,100520.38
2022-12-20T15:10:52.941Z,100531.94
2022-12-20T15:13:23.132Z,100539.50
2022-12-20T15:15:50.567Z,100546.41
2022-12-20T15:18:20.154Z,100532.41
2022-12-20T15:20:49.148Z,100527.97
2022-12-20T15:23:19.490Z,100530.09
2022-12-20T15:25:47.431Z,100528.47
2022-12-20T15:28:16.702Z,100533.34
2022-12-20T15:30:44.114Z,100523.00
2022-12-20T15:33:19.781Z,100530.78
2022-12-20T15:35:47.387Z,100526.25
2022-12-20T15:38:17.272Z,100526.03
2022-12-20T15:40:48.102Z,100515.97
2022-12-20T15:43:18.647Z,100511.66
2022-12-20T15:45:48.684Z,100514.34
2022-12-20T15:48:17.699Z,100517.03
2022-12-20T15:50:48.963Z,100521.56
2022-12-20T15:53:19.859Z,100524.13
2022-12-20T15:55:48.583Z,100516.09
2022-12-20T15:58:15.950Z,100528.47
2022-12-20T16:00:43.469Z,100523.22
2022-12-20T16:03:15.610Z,100511.69
2022-12-20T16:05:43.342Z,100523.13
2022-12-20T16:08:12.304Z,100517.63
2022-12-20T16:10:39.970Z,100514.69
2022-12-20T16:13:20.785Z,100523.34
2022-12-20T16:15:48.531Z,100520.53
2022-12-20T16:18:16.003Z,100512.25
2022-12-20T16:20:43.493Z,100519.94
2022-12-20T16:23:17.067Z,100523.66
2022-12-20T16:25:44.759Z,100530.06
2022-12-20T16:28:13.456Z,100520.16
2022-12-20T16:30:41.129Z,100516.06
2022-12-20T16:33:17.409Z,100509.50
2022-12-20T16:35:44.769Z,100520.00
2022-12-20T16:38:12.140Z,100513.13
2022-12-20T16:40:39.526Z,100522.22
2022-12-20T16:43:07.731Z,100518.72
2022-12-20T16:45:36.450Z,100532.81
2022-12-20T16:48:03.805Z,100529.81
2022-12-20T16:50:31.145Z,100533.41
2022-12-20T16:52:58.471Z,100535.75
2022-12-20T16:55:27.506Z,100530.41
2022-12-20T16:57:55.236Z,100541.59
2022-12-20T17:00:25.047Z,100529.44
2022-12-20T17:02:54.253Z,100534.47
2022-12-20T17:05:26.059Z,100524.09
2022-12-20T17:07:53.404Z,100528.63
2022-12-20T17:10:23.166Z,100524.22
2022-12-20T17:12:50.913Z,100518.28
2022-12-20T17:15:21.478Z,100515.44
2022-12-20T17:17:49.554Z,100509.84
2022-12-20T17:20:19.269Z,100514.66
2022-12-20T17:25:36.883Z,100508.78
2022-12-20T17:28:04.450Z,100521.63
2022-12-20T17:30:31.817Z,100515.47
2022-12-20T17:32:59.275Z,100504.97
2022-12-20T17:35:30.727Z,100499.84
2022-12-20T17:37:58.631Z,100493.19
2022-12-20T17:40:27.360Z,100491.81
2022-12-20T17:42:55.274Z,100484.00
2022-12-20T17:45:29.255Z,100483.75
2022-12-20T17:47:57.948Z,100474.31
2022-12-20T17:50:26.291Z,100478.06
2022-12-20T17:52:55.419Z,100472.28
2022-12-20T17:55:24.876Z,100473.41
2022-12-20T17:57:52.816Z,100468.03
2022-12-20T18:00:24.967Z,100476.34
2022-12-20T18:02:53.671Z,100488.06
2022-12-20T18:05:22.034Z,100493.91
2022-12-20T18:07:55.200Z,100486.56
2022-12-20T18:10:23.609Z,100498.47
2022-12-20T18:12:51.351Z,100497.72
2022-12-20T18:15:20.033Z,100506.03
2022-12-20T18:17:47.819Z,100499.25
2022-12-20T18:20:15.444Z,100494.34
2022-12-20T18:22:42.767Z,100498.69
2022-12-20T18:25:13.755Z,100497.03
2022-12-20T18:27:42.245Z,100497.41
2022-12-20T18:30:12.948Z,100501.38
2022-12-20T18:32:40.722Z,100496.34
2022-12-20T18:35:10.113Z,100493.66
2022-12-20T18:37:37.799Z,100486.19
2022-12-20T18:40:06.059Z,100498.31
2022-12-20T18:42:34.858Z,100490.59
2022-12-20T18:45:06.985Z,100496.31
2022-12-20T18:47:35.914Z,100491.41
2022-12-20T18:50:03.252Z,100501.19
2022-12-20T18:52:30.582Z,100487.44
2022-12-20T18:54:58.126Z,100496.88
2022-12-20T18:57:25.443Z,100494.81
2022-12-20T18:59:54.177Z,100493.06
2022-12-20T19:02:22.191Z,100490.38
2022-12-20T19:04:49.666Z,100487.94
2022-12-20T19:07:17.021Z,100494.09
2022-12-20T19:09:44.587Z,100484.19
2022-12-20T19:12:11.953Z,100490.78
2022-12-20T19:14:39.281Z,100483.34
2022-12-20T19:17:08.281Z,100477.63
2022-12-20T19:19:35.785Z,100486.72
2022-12-20T19:22:03.154Z,100482.97
2022-12-20T19:24:30.523Z,100472.84
2022-12-20T19:26:58.455Z,100483.56
2022-12-20T19:29:25.794Z,100477.94
2022-12-20T19:31:53.154Z,100474.22
2022-12-20T19:34:22.026Z,100471.28
2022-12-20T19:36:49.438Z,100480.41
2022-12-20T19:39:19.844Z,100475.03
2022-12-20T19:42:15.619Z,100479.25
2022-12-20T19:44:35.523Z,100479.00
2022-12-20T19:47:06.140Z,100480.91
2022-12-20T19:49:35.650Z,100484.47
2022-12-20T19:52:03.315Z,100477.47
2022-12-20T19:54:30.653Z,100472.59
2022-12-20T19:56:58.629Z,100483.56
2022-12-20T19:59:26.162Z,100475.72
2022-12-20T20:01:53.706Z,100478.88
2022-12-20T20:04:21.111Z,100478.97
2022-12-20T20:06:49.843Z,100478.13
2022-12-20T20:09:17.204Z,100482.09
2022-12-20T20:11:44.573Z,100479.44
2022-12-20T20:14:11.938Z,100482.09
2022-12-20T20:16:39.310Z,100473.41
2022-12-20T20:19:06.828Z,100477.25
2022-12-20T20:21:36.153Z,100487.47
2022-12-20T20:24:05.565Z,100477.09
2022-12-20T20:26:33.001Z,100481.31
2022-12-20T20:29:01.584Z,100476.41
2022-12-20T20:31:29.046Z,100477.56
2022-12-20T20:33:58.078Z,100476.03
2022-12-20T20:36:25.527Z,100475.81
2022-12-20T20:38:52.932Z,100475.94
2022-12-20T20:41:21.600Z,100469.53
2022-12-20T20:43:49.164Z,100467.75
2022-12-20T20:46:18.097Z,100470.00
2022-12-20T20:48:45.849Z,100475.22
2022-12-20T20:51:13.825Z,100468.22
2022-12-20T20:53:41.491Z,100470.69
2022-12-20T20:56:09.546Z,100468.22
2022-12-20T20:58:38.475Z,100462.31
2022-12-20T21:01:08.299Z,100455.38
2022-12-20T21:03:36.733Z,100454.91
2022-12-20T21:08:53.881Z,100458.41
2022-12-20T21:11:21.276Z,100458.88
2022-12-20T21:13:50.150Z,100468.78
2022-12-20T21:16:20.573Z,100451.31
2022-12-20T21:18:51.407Z,100462.03
2022-12-20T21:21:18.947Z,100462.53
2022-12-20T21:23:47.033Z,100461.16
2022-12-20T21:26:14.923Z,100463.31
2022-12-20T21:28:43.695Z,100460.41
2022-12-20T21:31:14.175Z,100462.03
2022-12-20T21:33:41.783Z,100466.94
2022-12-20T21:36:14.590Z,100462.59
2022-12-20T21:38:42.639Z,100456.50
2022-12-20T21:41:13.321Z,100456.50
2022-12-20T21:43:40.713Z,100455.09
2022-12-20T21:46:13.153Z,100452.50
2022-12-20T21:48:43.074Z,100446.75
2022-12-20T21:51:12.246Z,100447.88
2022-12-20T21:53:42.905Z,100436.50
2022-12-20T21:56:10.812Z,100434.78
2022-12-20T21:58:38.235Z,100436.03
2022-12-20T22:01:07.696Z,100443.75
2022-12-20T22:03:35.317Z,100444.22
2022-12-20T22:06:04.717Z,100455.09
2022-12-20T22:08:32.898Z,100446.59
2022-12-20T22:11:02.519Z,100456.00
2022-12-20T22:13:33.233Z,100444.81
2022-12-20T22:16:06.744Z,100443.53
2022-12-20T22:18:34.297Z,100447.88
2022-12-20T22:21:04.807Z,100454.53
2022-12-20T22:23:32.292Z,100458.28
2022-12-20T22:26:02.523Z,100464.31
2022-12-20T22:28:29.896Z,100457.38
2022-12-20T22:30:57.556Z,100461.91
2022-12-20T22:33:25.242Z,100465.59
2022-12-20T22:35:52.636Z,100463.25
2022-12-20T22:38:21.363Z,100463.88
2022-12-20T22:40:48.721Z,100453.16
2022-12-20T22:43:16.119Z,100444.19
2022-12-20T22:45:43.533Z,100445.56
2022-12-20T22:48:11.105Z,100451.72
2022-12-20T22:50:38.552Z,100452.41
2022-12-20T22:53:05.918Z,100448.06
2022-12-20T22:55:35.341Z,100452.28
2022-12-20T22:58:02.699Z,100451.75
2022-12-20T23:00:30.046Z,100450.22
2022-12-20T23:02:57.594Z,100431.03
2022-12-20T23:05:25.082Z,100425.34
2022-12-20T23:07:52.431Z,100417.41
2022-12-20T23:10:33.817Z,100424.28
2022-12-20T23:13:20.156Z,100430.00
2022-12-20T23:15:48.167Z,100436.91
2022-12-20T23:18:15.508Z,100434.22
2022-12-20T23:21:00.484Z,100427.94
2022-12-20T23:23:27.895Z,100425.63
2022-12-20T23:25:55.252Z,100428.72
2022-12-20T23:28:23.962Z,100427.06
2022-12-20T23:30:51.314Z,100425.13
2022-12-20T23:33:19.006Z,100425.13
2022-12-20T23:35:46.389Z,100419.53
2022-12-20T23:38:13.753Z,100428.09
2022-12-20T23:40:41.620Z,100418.91
2022-12-20T23:43:09.316Z,100426.72
2022-12-20T23:45:38.142Z,100427.53
2022-12-20T23:48:06.728Z,100429.88
2022-12-20T23:50:34.133Z,100423.66
2022-12-20T23:53:03.573Z,100425.31
2022-12-20T23:55:30.953Z,100434.66
2022-12-20T23:57:58.382Z,100430.13
